Time;durP1;ratioP1;P1;durP2;ratioP2;P2;SDS_P1;SDS_P2;PMS_P1;PMS_P2;Temp;Humidity;BMP_temperature;BMP_pressure;BME280_temperature;BME280_humidity;BME280_pressure;Samples;Min_cycle;Max_cycle;Signal;HPM_P1;HPM_P2
2022/04/10 00:02:56;;;;;;;9.60;5.55;;;;;;;1.84;86.47;101210.38;6095551;23;20466;-79
2022/04/10 00:08:58;;;;;;;10.52;6.00;;;;;;;1.57;87.81;101202.41;6183867;23;20025;-79
2022/04/10 00:12:16;;;;;;;11.20;6.32;;;;;;;1.52;87.83;101201.81;6168476;23;20028;-78
2022/04/10 00:18:03;;;;;;;12.05;6.93;;;;;;;1.45;88.56;101185.00;6170075;23;20025;-78
2022/04/10 00:20:43;;;;;;;13.60;6.50;;;;;;;1.52;88.20;101196.66;6188119;23;20682;-81
2022/04/10 00:23:25;;;;;;;15.80;7.72;;;;;;;1.47;87.34;101196.06;6188174;23;20017;-78
2022/04/10 00:26:12;;;;;;;15.55;7.45;;;;;;;1.45;87.60;101208.22;6186447;23;20021;-79
2022/04/10 00:28:51;;;;;;;18.10;7.90;;;;;;;1.48;88.34;101210.63;6185694;23;20048;-78
2022/04/10 00:34:50;;;;;;;21.30;7.75;;;;;;;1.50;88.08;101215.72;6176603;23;20025;-79
2022/04/10 00:37:31;;;;;;;15.98;8.18;;;;;;;1.39;88.34;101203.44;6188673;23;20031;-80
2022/04/10 00:46:49;;;;;;;12.68;7.47;;;;;;;1.30;88.18;101203.91;6187508;23;20052;-79
2022/04/10 00:49:27;;;;;;;12.13;6.45;;;;;;;1.38;87.94;101206.91;6192089;23;20428;-79
2022/04/10 00:52:31;;;;;;;15.43;8.02;;;;;;;1.45;87.91;101203.06;6191502;23;20017;-80
2022/04/10 00:55:29;;;;;;;14.30;6.93;;;;;;;1.57;87.10;101217.88;6188838;23;20075;-79
2022/04/10 00:58:29;;;;;;;11.63;6.85;;;;;;;1.46;87.50;101209.06;6186936;23;20088;-79
2022/04/10 01:01:44;;;;;;;;;;;;;;;;;;;;;
2022/04/10 01:04:23;;;;;;;16.33;6.82;;;;;;;1.52;87.48;101219.88;6138005;23;20374;-78
2022/04/10 01:07:33;;;;;;;18.77;7.53;;;;;;;1.49;87.02;101198.56;6188862;23;20020;-80
2022/04/10 01:10:26;;;;;;;16.45;7.50;;;;;;;1.49;87.33;101216.63;6112719;23;20024;-79
2022/04/10 01:13:33;;;;;;;15.90;7.28;;;;;;;1.43;88.00;101220.38;6186565;23;20087;-79
2022/04/10 01:16:18;;;;;;;12.35;6.40;;;;;;;1.29;88.30;101218.56;6188102;23;20025;-80
2022/04/10 01:22:14;;;;;;;10.85;6.68;;;;;;;1.35;88.36;101217.41;6185130;23;20056;-80
2022/04/10 01:25:09;;;;;;;16.83;7.72;;;;;;;1.41;88.54;101232.53;6188499;23;20045;-80
2022/04/10 01:30:50;;;;;;;14.68;6.43;;;;;;;1.26;88.07;101220.47;6191916;23;20047;-79
2022/04/10 01:33:40;;;;;;;11.95;7.07;;;;;;;1.21;88.62;101209.56;6217768;23;20423;-80
2022/04/10 01:36:33;;;;;;;13.35;6.85;;;;;;;1.40;88.07;101236.03;6205448;23;20032;-79
2022/04/10 01:42:09;;;;;;;9.52;6.30;;;;;;;1.36;88.21;101231.13;6214850;23;20028;-84
2022/04/10 01:44:41;;;;;;;13.85;7.00;;;;;;;1.30;87.96;101234.84;6218250;23;20103;-84
2022/04/10 01:47:08;;;;;;;10.60;6.93;;;;;;;1.25;88.15;101221.38;6217953;23;20027;-84
2022/04/10 01:49:34;;;;;;;16.55;6.80;;;;;;;1.24;88.04;101230.84;6217627;23;20072;-84
2022/04/10 01:52:01;;;;;;;11.23;6.95;;;;;;;1.20;88.74;101229.34;6188513;23;20084;-84
2022/04/10 01:54:27;;;;;;;9.80;6.38;;;;;;;1.22;88.26;101226.69;6187877;23;20056;-84
2022/04/10 01:56:54;;;;;;;13.20;6.85;;;;;;;1.22;88.85;101226.69;6186555;23;20100;-84
2022/04/10 01:59:22;;;;;;;16.02;6.55;;;;;;;1.29;88.44;101226.28;6186631;23;20104;-84
2022/04/10 02:01:49;;;;;;;17.65;7.10;;;;;;;1.18;89.03;101225.19;6187579;23;20096;-84
2022/04/10 02:04:15;;;;;;;9.93;6.32;;;;;;;1.11;89.58;101219.53;6187199;23;20029;-84
2022/04/10 02:06:42;;;;;;;9.73;5.95;;;;;;;1.07;89.45;101217.19;6187581;23;20473;-84
2022/04/10 02:09:09;;;;;;;12.45;6.70;;;;;;;1.05;90.02;101213.84;6187438;23;20080;-84
2022/04/10 02:11:36;;;;;;;15.52;6.43;;;;;;;1.04;89.66;101212.19;6187812;23;20084;-84
2022/04/10 02:14:03;;;;;;;14.32;6.63;;;;;;;1.04;89.66;101213.03;6187671;23;20048;-84
2022/04/10 02:16:30;;;;;;;12.30;7.05;;;;;;;1.17;89.61;101214.03;6186700;23;20096;-83
2022/04/10 02:18:57;;;;;;;11.70;6.70;;;;;;;1.08;90.02;101216.28;6187503;23;20060;-83
2022/04/10 02:21:24;;;;;;;14.50;7.40;;;;;;;1.18;89.68;101220.03;6192932;23;20028;-85
2022/04/10 02:23:50;;;;;;;14.23;7.28;;;;;;;1.21;89.96;101225.03;6187795;23;20104;-84
2022/04/10 02:26:17;;;;;;;16.58;7.38;;;;;;;1.23;89.87;101229.19;6187639;23;20029;-84
2022/04/10 02:28:44;;;;;;;12.18;7.10;;;;;;;1.29;89.68;101220.31;6187056;23;20025;-84
2022/04/10 02:31:10;;;;;;;14.15;7.03;;;;;;;1.21;89.76;101214.72;6187470;23;20055;-84
2022/04/10 02:33:39;;;;;;;11.13;6.82;;;;;;;1.22;90.01;101221.53;6186731;23;20025;-84
2022/04/10 02:36:06;;;;;;;11.57;7.20;;;;;;;1.30;89.94;101227.13;6186203;23;20104;-85
2022/04/10 02:38:32;;;;;;;12.00;7.22;;;;;;;1.38;90.00;101226.72;6187008;23;20067;-83
2022/04/10 02:40:59;;;;;;;11.80;7.03;;;;;;;1.46;89.58;101230.50;6186528;23;20170;-84
2022/04/10 02:43:25;;;;;;;13.95;7.25;;;;;;;1.50;89.46;101236.34;6187252;23;20031;-84
2022/04/10 02:45:52;;;;;;;11.43;6.53;;;;;;;1.50;89.48;101232.00;6187543;23;20096;-84
2022/04/10 02:48:19;;;;;;;16.23;7.03;;;;;;;1.55;89.64;101234.34;6186319;23;20041;-84
2022/04/10 02:50:47;;;;;;;13.40;7.03;;;;;;;1.57;89.31;101232.53;6187222;23;20048;-84
2022/04/10 02:53:13;;;;;;;13.77;6.78;;;;;;;1.57;89.32;101235.94;6187163;23;20063;-84
2022/04/10 02:55:40;;;;;;;13.35;6.93;;;;;;;1.56;89.51;101242.00;6186574;23;20116;-84
2022/04/10 02:58:07;;;;;;;16.02;7.45;;;;;;;1.63;89.12;101238.19;6187007;23;20056;-84
2022/04/10 03:00:33;;;;;;;15.70;6.50;;;;;;;1.64;89.26;101245.00;6186852;23;20386;-84
2022/04/10 03:03:00;;;;;;;15.50;6.82;;;;;;;1.58;89.25;101239.34;6187496;23;20067;-84
2022/04/10 03:05:27;;;;;;;14.07;6.72;;;;;;;1.69;89.18;101246.50;6187678;23;20478;-84
2022/04/10 03:07:55;;;;;;;16.70;7.53;;;;;;;1.79;88.61;101242.50;6186703;23;20049;-84
2022/04/10 03:10:22;;;;;;;13.10;7.47;;;;;;;1.79;88.52;101252.81;6186514;23;20096;-84
2022/04/10 03:12:49;;;;;;;12.43;6.82;;;;;;;1.76;89.16;101258.16;6187559;23;20092;-84
2022/04/10 03:15:15;;;;;;;14.77;7.05;;;;;;;1.79;88.61;101250.25;6187401;23;20056;-83
2022/04/10 03:17:42;;;;;;;13.25;7.35;;;;;;;1.88;88.50;101252.31;6187863;23;20359;-84
2022/04/10 03:20:11;;;;;;;20.15;7.63;;;;;;;1.93;88.41;101255.44;6187363;23;20199;-83
2022/04/10 03:22:38;;;;;;;17.90;7.65;;;;;;;1.84;88.52;101237.91;6187939;23;20021;-84
2022/04/10 03:25:07;;;;;;;15.23;8.00;;;;;;;1.97;88.76;101262.09;6187797;23;20112;-84
2022/04/10 03:27:34;;;;;;;15.00;7.43;;;;;;;1.92;88.71;101258.94;6188395;23;20092;-84
2022/04/10 03:30:00;;;;;;;11.95;7.32;;;;;;;1.98;88.98;101258.59;6189599;23;20100;-84
2022/04/10 03:32:27;;;;;;;13.32;7.70;;;;;;;1.97;88.95;101256.94;6189032;23;20060;-84
2022/04/10 03:34:54;;;;;;;16.40;7.22;;;;;;;2.00;88.89;101262.78;6189167;23;20101;-85
2022/04/10 03:37:20;;;;;;;15.93;7.30;;;;;;;2.00;88.39;101256.78;6188579;23;20025;-84
2022/04/10 03:39:47;;;;;;;14.82;7.80;;;;;;;2.06;88.24;101255.59;6188670;23;20052;-84
2022/04/10 03:42:15;;;;;;;15.60;7.07;;;;;;;2.11;88.22;101271.66;6188822;23;20021;-84
2022/04/10 03:44:41;;;;;;;12.27;7.40;;;;;;;2.22;87.78;101271.91;6197985;23;20048;-84
2022/04/10 03:47:08;;;;;;;12.25;7.28;;;;;;;2.20;87.63;101273.75;6207223;23;20063;-84
2022/04/10 03:49:35;;;;;;;13.05;7.95;;;;;;;2.19;87.74;101264.31;6206498;23;20013;-84
2022/04/10 03:52:01;;;;;;;14.48;7.07;;;;;;;2.20;87.76;101274.56;6204912;23;20040;-84
2022/04/10 03:54:28;;;;;;;17.63;7.80;;;;;;;2.17;87.70;101264.41;6188259;23;20104;-85
2022/04/10 03:56:54;;;;;;;13.38;7.03;;;;;;;2.13;87.94;101275.84;6189522;23;20025;-84
2022/04/10 03:59:24;;;;;;;12.15;7.25;;;;;;;2.16;88.19;101280.00;6191162;23;20055;-84
2022/04/10 04:01:51;;;;;;;15.05;7.05;;;;;;;2.17;88.33;101274.75;6189807;23;20028;-84
2022/04/10 04:04:20;;;;;;;13.40;7.35;;;;;;;2.13;88.24;101282.75;6199299;23;20082;-84
2022/04/10 04:06:47;;;;;;;14.13;7.43;;;;;;;2.11;88.69;101288.00;6191517;23;20469;-83
2022/04/10 04:09:14;;;;;;;17.50;7.78;;;;;;;2.10;88.27;101286.31;6187858;23;20073;-84
2022/04/10 04:11:40;;;;;;;15.52;7.70;;;;;;;2.05;88.47;101290.91;6187508;23;20029;-84
2022/04/10 04:14:07;;;;;;;16.98;8.52;;;;;;;1.97;88.47;101288.75;6186840;23;20100;-84
2022/04/10 04:16:35;;;;;;;15.82;7.55;;;;;;;1.90;88.74;101296.91;6186704;23;20128;-83
2022/04/10 04:19:02;;;;;;;16.05;7.97;;;;;;;1.97;88.57;101298.25;6187769;23;20055;-84
2022/04/10 04:21:29;;;;;;;13.68;7.60;;;;;;;1.89;88.94;101300.44;6189667;23;20097;-84
2022/04/10 04:23:55;;;;;;;14.43;7.53;;;;;;;1.81;89.44;101303.44;6188087;23;20111;-85
2022/04/10 04:26:22;;;;;;;13.48;7.72;;;;;;;1.78;89.34;101307.94;6188432;23;20053;-84
2022/04/10 04:28:49;;;;;;;12.98;7.38;;;;;;;1.66;89.62;101302.50;6186225;23;20100;-85
2022/04/10 04:31:15;;;;;;;12.10;7.75;;;;;;;1.61;89.90;101306.25;6187045;23;20037;-85
2022/04/10 04:33:43;;;;;;;12.95;7.50;;;;;;;1.58;90.05;101306.41;6187199;23;20025;-84
2022/04/10 04:36:10;;;;;;;13.57;7.95;;;;;;;1.56;90.18;101321.13;6187261;23;20071;-85
2022/04/10 04:38:37;;;;;;;16.30;8.15;;;;;;;1.53;90.15;101314.38;6186766;23;20091;-84
2022/04/10 04:41:04;;;;;;;17.77;8.20;;;;;;;1.45;90.62;101326.84;6186595;23;20480;-84
2022/04/10 04:43:30;;;;;;;13.88;8.07;;;;;;;1.39;90.79;101324.63;6188140;23;20035;-84
2022/04/10 04:45:57;;;;;;;18.52;8.25;;;;;;;1.30;91.33;101332.84;6189894;23;20370;-83
2022/04/10 04:48:24;;;;;;;18.23;8.82;;;;;;;1.39;91.02;101341.84;6187764;23;20056;-84
2022/04/10 04:50:52;;;;;;;16.23;9.02;;;;;;;1.42;91.01;101332.16;6188327;23;20100;-84
2022/04/10 04:53:18;;;;;;;14.55;8.95;;;;;;;1.50;90.69;101340.34;6187986;23;20172;-83
2022/04/10 04:55:45;;;;;;;15.07;8.75;;;;;;;1.53;90.52;101340.19;6189924;23;20055;-84
2022/04/10 04:58:12;;;;;;;14.60;8.18;;;;;;;1.48;90.47;101338.75;6190526;23;20032;-83
2022/04/10 05:00:38;;;;;;;15.90;8.55;;;;;;;1.55;90.57;101348.66;6192500;23;20154;-84
2022/04/10 05:03:05;;;;;;;12.77;8.13;;;;;;;1.61;90.09;101343.19;6193764;23;20048;-83
2022/04/10 05:05:32;;;;;;;14.25;8.65;;;;;;;1.81;89.69;101349.88;6195025;23;20056;-84
2022/04/10 05:08:00;;;;;;;17.73;9.13;;;;;;;1.76;89.89;101346.72;6191930;23;20025;-81
2022/04/10 05:10:26;;;;;;;16.33;9.18;;;;;;;1.70;89.44;101330.72;6191075;23;20326;-84
2022/04/10 05:12:53;;;;;;;15.10;8.75;;;;;;;1.77;89.55;101347.53;6191235;23;20037;-84
2022/04/10 05:15:20;;;;;;;12.82;9.05;;;;;;;1.78;89.99;101349.22;6192132;23;20092;-84
2022/04/10 05:17:46;;;;;;;14.55;9.13;;;;;;;1.80;90.25;101344.81;6192591;23;20472;-85
2022/04/10 05:20:13;;;;;;;14.07;9.30;;;;;;;1.86;90.07;101347.88;6194737;23;20048;-84
2022/04/10 05:22:40;;;;;;;15.65;9.10;;;;;;;1.85;89.99;101346.22;6191187;23;20053;-84
2022/04/10 05:25:09;;;;;;;17.83;10.20;;;;;;;1.90;90.02;101351.94;6190404;23;20032;-84
2022/04/10 05:27:36;;;;;;;16.70;9.55;;;;;;;1.99;90.46;101353.19;6190578;23;20092;-84
2022/04/10 05:30:04;;;;;;;15.30;9.90;;;;;;;2.05;90.33;101357.19;6191271;23;20052;-84
2022/04/10 05:32:33;;;;;;;14.82;9.85;;;;;;;2.03;90.26;101356.44;6191625;23;20029;-84
2022/04/10 05:35:00;;;;;;;13.23;9.73;;;;;;;2.17;90.10;101369.44;6191170;23;20357;-84
2022/04/10 05:37:27;;;;;;;17.08;10.10;;;;;;;2.19;89.62;101376.19;6189586;23;20420;-84
2022/04/10 05:39:53;;;;;;;18.30;10.00;;;;;;;2.20;89.74;101370.09;6190785;23;20025;-84
2022/04/10 05:42:21;;;;;;;14.30;9.25;;;;;;;2.35;89.55;101370.19;6190084;23;20024;-84
2022/04/10 05:44:48;;;;;;;15.60;9.93;;;;;;;2.45;89.09;101377.31;6190777;23;20052;-84
2022/04/10 05:47:14;;;;;;;16.27;9.95;;;;;;;2.62;88.75;101369.44;6190227;23;20072;-83
2022/04/10 05:49:41;;;;;;;18.00;10.20;;;;;;;2.70;88.44;101371.59;6189233;23;20066;-83
2022/04/10 05:52:08;;;;;;;17.52;10.40;;;;;;;2.91;87.92;101375.53;6189505;23;20104;-83
2022/04/10 05:54:35;;;;;;;16.40;10.63;;;;;;;3.13;87.41;101376.88;6188639;23;20351;-83
2022/04/10 05:57:01;;;;;;;16.10;9.43;;;;;;;3.33;86.86;101381.69;6187619;23;20535;-84
2022/04/10 05:59:29;;;;;;;15.30;9.68;;;;;;;3.38;85.82;101381.41;6188351;23;20096;-83
2022/04/10 06:01:56;;;;;;;13.60;9.10;;;;;;;3.59;85.16;101387.91;6190510;23;20096;-83
2022/04/10 06:04:23;;;;;;;13.43;9.18;;;;;;;3.80;84.48;101386.56;6189975;23;20059;-83
2022/04/10 06:06:51;;;;;;;19.27;9.48;;;;;;;3.78;84.27;101392.78;6188116;23;20508;-84
2022/04/10 06:09:18;;;;;;;14.10;8.77;;;;;;;3.89;84.45;101380.00;6189254;23;20084;-83
2022/04/10 06:11:45;;;;;;;13.70;8.70;;;;;;;4.38;82.34;101388.09;6190289;23;20096;-83
2022/04/10 06:14:12;;;;;;;14.90;9.23;;;;;;;5.44;80.82;101382.78;6190455;23;20350;-83
2022/04/10 06:16:40;;;;;;;14.85;8.05;;;;;;;6.78;74.77;101401.84;6188916;23;20092;-83
2022/04/10 06:19:06;;;;;;;9.43;7.00;;;;;;;7.93;69.23;101402.59;6188930;23;20221;-84
2022/04/10 06:21:33;;;;;;;14.32;7.65;;;;;;;8.70;66.27;101394.69;6187293;23;20052;-84
2022/04/10 06:23:59;;;;;;;14.02;7.20;;;;;;;9.08;62.73;101406.38;6191490;23;20036;-80
2022/04/10 06:26:26;;;;;;;11.65;8.30;;;;;;;8.03;66.38;101400.09;6192786;23;20078;-81
2022/04/10 06:28:54;;;;;;;12.15;7.50;;;;;;;8.75;64.76;101405.59;6190669;23;20462;-83
2022/04/10 06:31:20;;;;;;;12.23;6.80;;;;;;;9.37;61.70;101410.00;6186863;23;20346;-84
2022/04/10 06:33:49;;;;;;;11.02;6.55;;;;;;;9.72;60.62;101400.94;6186668;23;20144;-83
2022/04/10 06:36:16;;;;;;;11.75;6.80;;;;;;;9.60;60.96;101414.09;6186471;23;20036;-84
2022/04/10 06:38:42;;;;;;;11.48;7.25;;;;;;;9.94;58.51;101411.19;6187541;23;20047;-84
2022/04/10 06:41:09;;;;;;;10.68;6.82;;;;;;;9.45;59.78;101414.56;6186752;23;20091;-83
2022/04/10 06:43:35;;;;;;;11.95;7.18;;;;;;;7.88;65.08;101414.31;6186957;23;20025;-83
2022/04/10 06:46:04;;;;;;;12.73;7.78;;;;;;;7.59;66.41;101416.56;6188256;23;20059;-83
2022/04/10 06:48:31;;;;;;;11.95;7.82;;;;;;;7.44;67.95;101415.13;6188634;23;20032;-83
2022/04/10 06:50:59;;;;;;;12.40;7.82;;;;;;;7.86;66.42;101422.25;6192997;23;20025;-83
2022/04/10 06:53:25;;;;;;;10.68;7.55;;;;;;;7.91;66.39;101424.50;6192919;23;20045;-84
2022/04/10 06:55:52;;;;;;;13.60;7.13;;;;;;;9.06;62.08;101429.16;6191403;23;20032;-82
2022/04/10 06:58:22;;;;;;;14.82;8.65;;;;;;;9.02;61.48;101440.81;6191118;23;20071;-82
2022/04/10 07:00:49;;;;;;;32.85;18.75;;;;;;;8.87;61.93;101425.47;6192456;23;20025;-84
2022/04/10 07:03:16;;;;;;;17.38;11.45;;;;;;;8.41;63.80;101428.38;6192413;23;20025;-83
2022/04/10 07:05:42;;;;;;;15.23;8.05;;;;;;;8.84;63.52;101430.94;6190408;23;20024;-85
2022/04/10 07:08:13;;;;;;;9.35;7.63;;;;;;;9.64;60.14;101431.16;6193374;23;20588;-83
2022/04/10 07:10:40;;;;;;;11.52;7.75;;;;;;;10.45;58.03;101418.91;6194569;23;20075;-83
2022/04/10 07:13:07;;;;;;;13.82;7.65;;;;;;;10.92;57.34;101427.72;6192755;23;20043;-83
2022/04/10 07:15:33;;;;;;;12.95;8.68;;;;;;;9.94;59.60;101435.53;6194094;23;20047;-83
2022/04/10 07:18:00;;;;;;;16.80;10.85;;;;;;;10.48;58.06;101417.78;6193404;23;20063;-83
2022/04/10 07:20:28;;;;;;;17.35;9.98;;;;;;;11.15;56.82;101430.88;6194365;23;20033;-84
2022/04/10 07:25:45;;;;;;;17.02;9.18;;;;;;;11.31;55.13;101430.31;6155564;23;20025;-83
2022/04/10 07:28:12;;;;;;;12.50;8.25;;;;;;;10.99;57.04;101435.84;6194412;23;20025;-83
2022/04/10 07:30:38;;;;;;;17.83;8.93;;;;;;;11.98;53.59;101445.00;6194126;23;20013;-83
2022/04/10 07:33:06;;;;;;;16.02;8.57;;;;;;;11.81;53.81;101437.91;6193080;23;20017;-83
2022/04/10 07:35:34;;;;;;;18.10;9.55;;;;;;;12.13;52.40;101453.22;6193276;23;20104;-83
2022/04/10 07:38:01;;;;;;;13.93;8.95;;;;;;;11.65;53.67;101438.47;6194017;23;20036;-83
2022/04/10 07:48:08;;;;;;;15.77;10.45;;;;;;;11.28;55.44;101459.41;6191407;23;20024;-80
2022/04/10 07:50:35;;;;;;;14.80;9.25;;;;;;;11.16;54.93;101457.91;6191215;23;20025;-80
2022/04/10 07:53:02;;;;;;;15.85;8.02;;;;;;;11.76;54.01;101471.56;6192364;23;20021;-79
2022/04/10 07:55:29;;;;;;;15.65;8.75;;;;;;;11.20;53.92;101470.59;6197274;23;20025;-80
2022/04/10 07:57:56;;;;;;;11.90;7.60;;;;;;;11.37;53.35;101465.56;6198518;23;20048;-79
2022/04/10 08:00:26;;;;;;;13.35;8.82;;;;;;;11.55;53.81;101469.97;6200189;23;20076;-81
2022/04/10 08:02:53;;;;;;;16.05;8.68;;;;;;;11.16;55.44;101463.97;6200691;23;20025;-81
2022/04/10 08:05:21;;;;;;;10.98;6.72;;;;;;;11.44;52.40;101477.97;6190022;23;20024;-81
2022/04/10 08:07:48;;;;;;;12.40;7.00;;;;;;;11.71;51.92;101479.84;6189502;23;20473;-81
2022/04/10 08:10:15;;;;;;;12.05;6.88;;;;;;;11.12;54.02;101483.53;6189655;23;20409;-81
2022/04/10 08:12:43;;;;;;;15.15;7.63;;;;;;;10.70;54.51;101490.84;6189781;23;20017;-82
2022/04/10 08:15:11;;;;;;;12.77;7.78;;;;;;;11.01;54.97;101488.09;6190909;23;20451;-81
2022/04/10 08:17:38;;;;;;;13.07;7.45;;;;;;;10.97;55.17;101490.97;6189898;23;20061;-81
2022/04/10 08:20:06;;;;;;;11.82;6.70;;;;;;;11.72;52.29;101492.00;6189198;23;20021;-82
2022/04/10 08:22:36;;;;;;;8.95;6.80;;;;;;;11.81;52.18;101498.22;6190189;23;20052;-81
2022/04/10 08:25:03;;;;;;;10.90;7.22;;;;;;;11.78;53.35;101490.63;6190010;23;20369;-81
2022/04/10 08:27:30;;;;;;;13.23;7.80;;;;;;;11.64;53.56;101499.75;6191181;23;20056;-82
2022/04/10 08:29:57;;;;;;;12.90;7.88;;;;;;;11.68;54.76;101510.78;6192886;23;20358;-82
2022/04/10 08:32:24;;;;;;;14.02;7.90;;;;;;;12.24;52.13;101508.13;6192197;23;20033;-81
2022/04/10 08:34:51;;;;;;;12.35;6.97;;;;;;;11.83;51.60;101498.88;6192948;23;20032;-82
2022/04/10 08:37:21;;;;;;;8.40;6.28;;;;;;;12.33;50.21;101503.78;6192513;23;20031;-82
2022/04/10 08:39:49;;;;;;;12.80;8.05;;;;;;;13.09;47.52;101499.81;6193310;23;20048;-82
2022/04/10 08:42:15;;;;;;;14.63;7.07;;;;;;;11.99;50.39;101506.16;6193284;23;20052;-80
2022/04/10 08:44:42;;;;;;;12.90;7.10;;;;;;;11.53;51.46;101505.16;6192679;23;20076;-81
2022/04/10 08:47:09;;;;;;;11.63;7.03;;;;;;;11.69;51.51;101512.44;6191889;23;20021;-81
2022/04/10 08:49:36;;;;;;;9.65;7.07;;;;;;;10.73;54.06;101498.41;6191500;23;20063;-82
2022/04/10 08:52:03;;;;;;;10.98;6.90;;;;;;;10.79;54.10;101500.50;6192114;23;20021;-80
2022/04/10 08:54:30;;;;;;;10.63;6.07;;;;;;;11.27;51.50;101503.13;6191512;23;20021;-79
2022/04/10 08:56:59;;;;;;;11.90;6.65;;;;;;;10.80;51.24;101507.38;6191489;23;20450;-81
2022/04/10 08:59:26;;;;;;;13.23;5.97;;;;;;;11.26;50.39;101508.50;6189643;23;20023;-83
2022/04/10 09:01:56;;;;;;;14.52;5.70;;;;;;;11.79;48.86;101510.66;6191008;23;20045;-81
2022/04/10 09:04:23;;;;;;;12.63;6.15;;;;;;;11.27;51.66;101510.16;6191042;23;20394;-82
2022/04/10 09:07:02;;;;;;;11.45;5.63;;;;;;;11.49;49.04;101512.47;6192128;23;20017;-80
2022/04/10 09:09:30;;;;;;;9.73;5.95;;;;;;;11.24;50.09;101511.25;6190962;23;20017;-81
2022/04/10 09:11:59;;;;;;;9.57;5.90;;;;;;;12.38;48.07;101512.03;6191330;23;20361;-79
2022/04/10 09:14:28;;;;;;;11.50;7.78;;;;;;;11.47;49.80;101517.00;6192162;23;20078;-80
2022/04/10 09:17:12;;;;;;;12.50;6.78;;;;;;;11.37;50.76;101518.81;6192643;23;20111;-81
2022/04/10 09:19:41;;;;;;;9.95;6.70;;;;;;;11.51;49.67;101515.75;6192178;23;20033;-81
2022/04/10 09:22:30;;;;;;;9.10;4.68;;;;;;;11.48;47.30;101510.81;6191557;23;20048;-81
2022/04/10 09:25:11;;;;;;;9.30;5.00;;;;;;;12.06;47.35;101515.09;6192015;23;20071;-80
2022/04/10 09:27:42;;;;;;;8.60;5.40;;;;;;;11.74;48.60;101513.66;6191886;23;20031;-81
2022/04/10 09:30:10;;;;;;;12.15;5.93;;;;;;;11.11;49.87;101513.31;6191908;23;20025;-81
2022/04/10 09:32:42;;;;;;;9.82;5.80;;;;;;;11.06;50.01;101504.22;6194328;23;20036;-80
2022/04/10 09:35:13;;;;;;;12.70;5.80;;;;;;;11.45;51.03;101513.69;6192450;23;20109;-81
2022/04/10 09:37:45;;;;;;;9.82;5.70;;;;;;;11.21;49.20;101513.31;6192530;23;20025;-80
2022/04/10 09:40:32;;;;;;;9.65;5.30;;;;;;;11.54;49.20;101504.19;6192028;23;20028;-80
2022/04/10 09:43:04;;;;;;;6.97;4.68;;;;;;;11.49;45.61;101506.38;6192735;23;20117;-80
2022/04/10 09:45:36;;;;;;;8.85;4.90;;;;;;;10.90;46.24;101516.06;6193132;23;20114;-81
2022/04/10 09:48:20;;;;;;;10.98;4.70;;;;;;;10.52;47.35;101518.63;6191517;23;20458;-80
2022/04/10 09:50:48;;;;;;;9.48;4.90;;;;;;;10.17;49.02;101524.25;6191581;23;20025;-80
2022/04/10 09:53:14;;;;;;;8.93;5.15;;;;;;;9.91;50.62;101518.66;6193023;23;20021;-82
2022/04/10 09:55:45;;;;;;;7.10;4.88;;;;;;;10.46;50.97;101513.91;6193409;23;20032;-82
2022/04/10 09:58:13;;;;;;;9.68;5.35;;;;;;;10.71;50.55;101510.81;6191963;23;20027;-82
2022/04/10 10:00:41;;;;;;;9.05;5.53;;;;;;;11.07;50.03;101522.41;6191828;23;20021;-81
2022/04/10 10:03:09;;;;;;;7.78;5.03;;;;;;;11.51;49.41;101509.69;6191066;23;20472;-80
2022/04/10 10:05:36;;;;;;;10.25;4.93;;;;;;;11.62;48.38;101515.63;6191969;23;20021;-81
2022/04/10 10:08:04;;;;;;;9.18;5.63;;;;;;;11.60;48.61;101508.84;6192422;23;20025;-81
2022/04/10 10:10:32;;;;;;;8.30;5.15;;;;;;;11.21;47.42;101508.91;6192049;23;20079;-80
2022/04/10 10:12:59;;;;;;;12.40;4.90;;;;;;;11.84;45.57;101506.59;6192266;23;20017;-81
2022/04/10 10:15:28;;;;;;;9.93;5.47;;;;;;;11.31;48.55;101503.69;6191740;23;20073;-80
2022/04/10 10:17:55;;;;;;;8.68;4.93;;;;;;;10.63;48.99;101498.41;6191694;23;20021;-80
2022/04/10 10:20:23;;;;;;;11.85;4.95;;;;;;;10.43;50.21;101511.56;6193151;23;20048;-80
2022/04/10 10:22:50;;;;;;;8.18;5.45;;;;;;;9.67;51.28;101508.47;6195000;23;20025;-81
2022/04/10 10:25:24;;;;;;;8.88;5.43;;;;;;;9.54;53.48;101515.66;6191595;23;20023;-82
2022/04/10 10:28:41;;;;;;;10.70;5.18;;;;;;;9.66;53.78;101506.81;6191633;23;20025;-80
2022/04/10 10:31:31;;;;;;;9.93;5.47;;;;;;;9.73;53.59;101496.69;6192469;23;20053;-81
2022/04/10 10:34:03;;;;;;;9.10;5.10;;;;;;;9.95;53.48;101501.72;6191583;23;20072;-81
2022/04/10 10:36:31;;;;;;;10.07;4.45;;;;;;;10.20;50.97;101503.94;6193391;23;20025;-80
2022/04/10 10:38:59;;;;;;;9.90;4.20;;;;;;;10.53;49.10;101497.56;6191470;23;20033;-80
2022/04/10 10:41:41;;;;;;;8.20;4.00;;;;;;;10.63;47.69;101497.56;6204372;23;20033;-81
2022/04/10 10:44:42;;;;;;;7.40;4.03;;;;;;;10.68;47.58;101489.31;6222610;23;20016;-81
2022/04/10 10:47:25;;;;;;;9.68;4.65;;;;;;;10.43;51.77;101490.63;6221850;23;20357;-81
2022/04/10 10:49:55;;;;;;;11.40;4.97;;;;;;;10.44;51.10;101490.50;6221137;23;20028;-80
2022/04/10 10:52:25;;;;;;;7.45;4.43;;;;;;;10.73;48.89;101477.47;6194960;23;20398;-81
2022/04/10 10:54:53;;;;;;;10.73;4.78;;;;;;;11.14;48.00;101499.13;6211142;23;20107;-82
2022/04/10 10:57:39;;;;;;;6.80;4.85;;;;;;;11.81;47.53;101501.66;6224745;23;20024;-80
2022/04/10 11:00:19;;;;;;;11.23;4.35;;;;;;;11.40;47.56;101481.84;6222466;23;20027;-82
2022/04/10 11:02:51;;;;;;;7.85;4.88;;;;;;;11.12;48.73;101495.81;6223001;23;20055;-82
2022/04/10 11:05:32;;;;;;;10.60;4.10;;;;;;;10.98;45.94;101489.19;6196337;23;20155;-80
2022/04/10 11:08:02;;;;;;;9.13;4.00;;;;;;;11.10;46.29;101487.28;6192017;23;20025;-81
2022/04/10 11:10:33;;;;;;;8.70;4.45;;;;;;;11.27;46.31;101491.81;6191965;23;20103;-82
2022/04/10 11:13:02;;;;;;;4.88;3.40;;;;;;;11.13;45.69;101473.91;6191905;23;20025;-82
2022/04/10 11:15:34;;;;;;;4.68;3.40;;;;;;;11.11;45.43;101494.16;6191192;23;20044;-82
2022/04/10 11:18:35;;;;;;;6.05;3.42;;;;;;;11.11;44.53;101488.94;6191841;23;20021;-82
2022/04/10 11:21:09;;;;;;;6.32;3.35;;;;;;;11.00;44.69;101491.66;6191563;23;20097;-81
2022/04/10 11:23:45;;;;;;;6.22;3.50;;;;;;;10.59;44.43;101485.72;6191070;23;20045;-81
2022/04/10 11:26:14;;;;;;;7.22;3.60;;;;;;;10.97;45.57;101488.38;6192007;23;20032;-81
2022/04/10 11:29:03;;;;;;;7.18;3.60;;;;;;;11.16;43.83;101490.16;6190911;23;20023;-81
2022/04/10 11:31:34;;;;;;;8.30;3.10;;;;;;;11.14;43.72;101492.09;6192462;23;20024;-81
2022/04/10 11:34:15;;;;;;;6.75;3.25;;;;;;;11.40;43.75;101484.47;6192818;23;20025;-82
2022/04/10 11:36:52;;;;;;;5.18;3.15;;;;;;;10.86;43.41;101493.75;6192802;23;20092;-81
2022/04/10 11:39:23;;;;;;;6.03;3.40;;;;;;;10.71;45.34;101492.50;6194853;23;20048;-80
2022/04/10 11:41:50;;;;;;;5.10;3.20;;;;;;;10.62;45.17;101503.78;6194482;23;20021;-81
2022/04/10 11:44:18;;;;;;;5.55;3.38;;;;;;;10.67;46.07;101488.50;6194960;23;20025;-79
2022/04/10 11:46:46;;;;;;;7.80;3.90;;;;;;;11.23;46.72;101496.50;6191607;23;20021;-81
2022/04/10 11:49:17;;;;;;;6.55;3.70;;;;;;;10.61;47.19;101496.88;6191642;23;20028;-81
2022/04/10 11:51:54;;;;;;;6.63;3.65;;;;;;;10.56;47.39;101486.00;6191174;23;20021;-82
2022/04/10 11:54:29;;;;;;;6.57;3.95;;;;;;;10.81;46.94;101490.72;6191469;23;20393;-81
2022/04/10 11:56:56;;;;;;;8.05;4.00;;;;;;;10.84;46.60;101493.06;6191129;23;20025;-82
2022/04/10 11:59:23;;;;;;;6.97;3.88;;;;;;;11.04;48.03;101485.19;6190335;23;20111;-81
2022/04/10 12:01:51;;;;;;;8.43;3.90;;;;;;;11.34;46.82;101479.00;6191425;23;20095;-81
2022/04/10 12:04:19;;;;;;;7.90;3.95;;;;;;;11.47;46.78;101496.03;6192263;23;20021;-81
2022/04/10 12:06:46;;;;;;;8.48;4.32;;;;;;;11.10;46.82;101493.34;6193178;23;20096;-80
2022/04/10 12:09:14;;;;;;;8.27;4.47;;;;;;;11.04;46.94;101495.69;6192999;23;20100;-82
2022/04/10 12:11:41;;;;;;;6.13;4.00;;;;;;;10.80;47.41;101494.31;6193555;23;20080;-82
2022/04/10 12:14:22;;;;;;;10.13;4.30;;;;;;;11.24;45.49;101494.72;6194349;23;20036;-82
2022/04/10 12:16:49;;;;;;;10.98;4.30;;;;;;;11.49;44.88;101488.88;6192933;23;20493;-81
2022/04/10 12:19:16;;;;;;;8.82;4.28;;;;;;;11.76;44.85;101488.13;6192764;23;20021;-82